sensor_id;sensor_type;location;lat;lon;timestamp;pressure;altitude;pressure_sealevel;temperature;humidity
85016;BME280;75339;50.216;20.512;2024-01-15T00:01:57;97109.46;;;-0.54;72.75
85016;BME280;75339;50.216;20.512;2024-01-15T00:04:24;97107.20;;;-0.54;73.26
85016;BME280;75339;50.216;20.512;2024-01-15T00:06:51;97093.76;;;-0.55;72.93
85016;BME280;75339;50.216;20.512;2024-01-15T00:09:17;97089.28;;;-0.56;73.34
85016;BME280;75339;50.216;20.512;2024-01-15T00:11:44;97091.37;;;-0.57;73.21
85016;BME280;75339;50.216;20.512;2024-01-15T00:14:11;97095.65;;;-0.55;72.75
85016;BME280;75339;50.216;20.512;2024-01-15T00:16:40;97095.60;;;-0.53;72.53
85016;BME280;75339;50.216;20.512;2024-01-15T00:19:07;97088.70;;;-0.54;72.89
85016;BME280;75339;50.216;20.512;2024-01-15T00:21:33;97087.50;;;-0.54;72.77
85016;BME280;75339;50.216;20.512;2024-01-15T00:24:00;97084.20;;;-0.54;72.67
85016;BME280;75339;50.216;20.512;2024-01-15T00:26:27;97085.77;;;-0.54;72.42
85016;BME280;75339;50.216;20.512;2024-01-15T00:28:53;97079.70;;;-0.54;72.33
85016;BME280;75339;50.216;20.512;2024-01-15T00:31:20;97083.58;;;-0.56;72.28
85016;BME280;75339;50.216;20.512;2024-01-15T00:33:46;97069.37;;;-0.55;72.54
85016;BME280;75339;50.216;20.512;2024-01-15T00:36:13;97070.60;;;-0.55;72.67
85016;BME280;75339;50.216;20.512;2024-01-15T00:38:40;97071.66;;;-0.57;72.39
85016;BME280;75339;50.216;20.512;2024-01-15T00:41:07;97071.67;;;-0.59;72.44
85016;BME280;75339;50.216;20.512;2024-01-15T00:43:34;97068.42;;;-0.61;72.97
85016;BME280;75339;50.216;20.512;2024-01-15T00:46:04;97059.13;;;-0.64;72.74
85016;BME280;75339;50.216;20.512;2024-01-15T00:48:31;97056.52;;;-0.64;72.17
85016;BME280;75339;50.216;20.512;2024-01-15T00:50:58;97050.30;;;-0.64;72.63
85016;BME280;75339;50.216;20.512;2024-01-15T00:53:25;97047.04;;;-0.65;73.20
85016;BME280;75339;50.216;20.512;2024-01-15T00:55:52;97045.33;;;-0.66;72.56
85016;BME280;75339;50.216;20.512;2024-01-15T00:58:19;97048.45;;;-0.67;72.85
85016;BME280;75339;50.216;20.512;2024-01-15T01:00:45;97045.98;;;-0.64;72.94
85016;BME280;75339;50.216;20.512;2024-01-15T01:03:12;97040.11;;;-0.64;72.88
85016;BME280;75339;50.216;20.512;2024-01-15T01:05:39;97037.02;;;-0.65;72.64
85016;BME280;75339;50.216;20.512;2024-01-15T01:08:07;97033.36;;;-0.64;72.40
85016;BME280;75339;50.216;20.512;2024-01-15T01:10:33;97024.41;;;-0.66;72.52
85016;BME280;75339;50.216;20.512;2024-01-15T01:13:00;97031.70;;;-0.68;73.02
85016;BME280;75339;50.216;20.512;2024-01-15T01:15:27;97018.02;;;-0.67;72.49
85016;BME280;75339;50.216;20.512;2024-01-15T01:17:53;97016.09;;;-0.65;72.45
85016;BME280;75339;50.216;20.512;2024-01-15T01:20:20;97019.72;;;-0.65;72.70
85016;BME280;75339;50.216;20.512;2024-01-15T01:22:47;96991.64;;;-0.83;72.82
85016;BME280;75339;50.216;20.512;2024-01-15T01:25:16;97013.69;;;-0.67;72.13
85016;BME280;75339;50.216;20.512;2024-01-15T01:27:43;97008.14;;;-0.65;72.40
85016;BME280;75339;50.216;20.512;2024-01-15T01:30:09;97004.14;;;-0.64;72.05
85016;BME280;75339;50.216;20.512;2024-01-15T01:32:36;96999.29;;;-0.63;71.76
85016;BME280;75339;50.216;20.512;2024-01-15T01:35:03;96997.91;;;-0.63;72.11
85016;BME280;75339;50.216;20.512;2024-01-15T01:37:30;96995.19;;;-0.66;72.22
85016;BME280;75339;50.216;20.512;2024-01-15T01:39:57;96990.70;;;-0.67;71.46
85016;BME280;75339;50.216;20.512;2024-01-15T01:42:23;96989.45;;;-0.64;71.41
85016;BME280;75339;50.216;20.512;2024-01-15T01:44:50;96983.71;;;-0.62;71.51
85016;BME280;75339;50.216;20.512;2024-01-15T01:47:16;96977.98;;;-0.60;70.81
85016;BME280;75339;50.216;20.512;2024-01-15T01:49:43;96973.28;;;-0.58;70.80
85016;BME280;75339;50.216;20.512;2024-01-15T01:52:10;96977.59;;;-0.56;70.86
85016;BME280;75339;50.216;20.512;2024-01-15T01:54:38;96982.78;;;-0.56;71.01
85016;BME280;75339;50.216;20.512;2024-01-15T01:57:07;96978.11;;;-0.57;71.04
85016;BME280;75339;50.216;20.512;2024-01-15T01:59:35;96974.44;;;-0.55;70.93
85016;BME280;75339;50.216;20.512;2024-01-15T02:02:03;96975.91;;;-0.51;70.73
85016;BME280;75339;50.216;20.512;2024-01-15T02:04:31;96940.91;;;-0.66;70.68
85016;BME280;75339;50.216;20.512;2024-01-15T02:07:01;96966.63;;;-0.43;70.72
85016;BME280;75339;50.216;20.512;2024-01-15T02:09:28;96962.23;;;-0.39;70.06
85016;BME280;75339;50.216;20.512;2024-01-15T02:11:55;96962.25;;;-0.40;70.13
85016;BME280;75339;50.216;20.512;2024-01-15T02:14:21;96955.73;;;-0.42;70.61
85016;BME280;75339;50.216;20.512;2024-01-15T02:16:49;96953.36;;;-0.46;70.51
85016;BME280;75339;50.216;20.512;2024-01-15T02:19:16;96951.77;;;-0.45;70.47
85016;BME280;75339;50.216;20.512;2024-01-15T02:21:44;96943.29;;;-0.43;70.75
85016;BME280;75339;50.216;20.512;2024-01-15T02:24:11;96944.31;;;-0.42;70.06
85016;BME280;75339;50.216;20.512;2024-01-15T02:26:38;96941.37;;;-0.42;70.85
85016;BME280;75339;50.216;20.512;2024-01-15T02:29:07;96940.65;;;-0.41;70.11
85016;BME280;75339;50.216;20.512;2024-01-15T02:31:37;96933.40;;;-0.42;70.64
85016;BME280;75339;50.216;20.512;2024-01-15T02:34:03;96930.30;;;-0.43;70.91
85016;BME280;75339;50.216;20.512;2024-01-15T02:36:30;96929.27;;;-0.43;70.82
85016;BME280;75339;50.216;20.512;2024-01-15T02:38:57;96922.91;;;-0.45;71.26
85016;BME280;75339;50.216;20.512;2024-01-15T02:41:24;96921.41;;;-0.49;70.85
85016;BME280;75339;50.216;20.512;2024-01-15T02:43:50;96925.36;;;-0.47;70.89
85016;BME280;75339;50.216;20.512;2024-01-15T02:46:17;96920.69;;;-0.47;70.59
85016;BME280;75339;50.216;20.512;2024-01-15T02:48:44;96905.92;;;-0.43;70.63
85016;BME280;75339;50.216;20.512;2024-01-15T02:51:10;96904.39;;;-0.44;71.26
85016;BME280;75339;50.216;20.512;2024-01-15T02:53:37;96904.20;;;-0.43;70.62
85016;BME280;75339;50.216;20.512;2024-01-15T02:56:03;96897.91;;;-0.40;70.35
85016;BME280;75339;50.216;20.512;2024-01-15T02:58:30;96893.71;;;-0.36;70.13
85016;BME280;75339;50.216;20.512;2024-01-15T03:00:57;96890.89;;;-0.32;70.01
85016;BME280;75339;50.216;20.512;2024-01-15T03:03:24;96887.05;;;-0.31;69.98
85016;BME280;75339;50.216;20.512;2024-01-15T03:05:51;96885.38;;;-0.26;69.22
85016;BME280;75339;50.216;20.512;2024-01-15T03:08:18;96880.95;;;-0.28;69.69
85016;BME280;75339;50.216;20.512;2024-01-15T03:10:44;96883.65;;;-0.26;69.48
85016;BME280;75339;50.216;20.512;2024-01-15T03:13:11;96885.86;;;-0.24;69.16
85016;BME280;75339;50.216;20.512;2024-01-15T03:15:41;96883.30;;;-0.25;69.32
85016;BME280;75339;50.216;20.512;2024-01-15T03:18:07;96881.72;;;-0.33;69.46
85016;BME280;75339;50.216;20.512;2024-01-15T03:20:34;96868.35;;;-0.40;69.93
85016;BME280;75339;50.216;20.512;2024-01-15T03:23:00;96858.17;;;-0.42;69.56
85016;BME280;75339;50.216;20.512;2024-01-15T03:25:27;96851.41;;;-0.41;69.50
85016;BME280;75339;50.216;20.512;2024-01-15T03:27:54;96853.80;;;-0.39;69.54
85016;BME280;75339;50.216;20.512;2024-01-15T03:30:20;96855.01;;;-0.39;69.03
85016;BME280;75339;50.216;20.512;2024-01-15T03:32:47;96856.91;;;-0.39;68.87
85016;BME280;75339;50.216;20.512;2024-01-15T03:35:16;96858.77;;;-0.37;68.89
85016;BME280;75339;50.216;20.512;2024-01-15T03:37:43;96860.92;;;-0.31;69.02
85016;BME280;75339;50.216;20.512;2024-01-15T03:40:10;96854.33;;;-0.29;68.06
85016;BME280;75339;50.216;20.512;2024-01-15T03:42:37;96849.98;;;-0.29;68.17
85016;BME280;75339;50.216;20.512;2024-01-15T03:45:04;96854.55;;;-0.32;68.69
85016;BME280;75339;50.216;20.512;2024-01-15T03:47:32;96853.21;;;-0.35;68.57
85016;BME280;75339;50.216;20.512;2024-01-15T03:49:59;96855.70;;;-0.39;68.43
85016;BME280;75339;50.216;20.512;2024-01-15T03:52:25;96850.75;;;-0.42;68.28
85016;BME280;75339;50.216;20.512;2024-01-15T03:54:52;96850.78;;;-0.45;68.89
85016;BME280;75339;50.216;20.512;2024-01-15T03:57:19;96848.38;;;-0.46;68.51
85016;BME280;75339;50.216;20.512;2024-01-15T03:59:45;96843.54;;;-0.46;68.81
85016;BME280;75339;50.216;20.512;2024-01-15T04:02:13;96840.63;;;-0.47;68.22
85016;BME280;75339;50.216;20.512;2024-01-15T04:04:42;96837.50;;;-0.46;68.51
85016;BME280;75339;50.216;20.512;2024-01-15T04:07:10;96822.39;;;-0.53;68.27
85016;BME280;75339;50.216;20.512;2024-01-15T04:09:37;96832.64;;;-0.45;68.19
85016;BME280;75339;50.216;20.512;2024-01-15T04:12:04;96831.70;;;-0.41;68.31
85016;BME280;75339;50.216;20.512;2024-01-15T04:14:31;96824.44;;;-0.42;67.59
85016;BME280;75339;50.216;20.512;2024-01-15T04:16:58;96822.67;;;-0.39;67.88
85016;BME280;75339;50.216;20.512;2024-01-15T04:19:24;96819.14;;;-0.35;67.77
85016;BME280;75339;50.216;20.512;2024-01-15T04:21:51;96817.92;;;-0.35;67.75
85016;BME280;75339;50.216;20.512;2024-01-15T04:24:18;96816.53;;;-0.35;67.93
85016;BME280;75339;50.216;20.512;2024-01-15T04:26:45;96795.51;;;-0.47;67.21
85016;BME280;75339;50.216;20.512;2024-01-15T04:29:12;96815.49;;;-0.34;67.36
85016;BME280;75339;50.216;20.512;2024-01-15T04:31:38;96811.35;;;-0.35;67.50
85016;BME280;75339;50.216;20.512;2024-01-15T04:34:05;96809.64;;;-0.36;67.60
85016;BME280;75339;50.216;20.512;2024-01-15T04:36:31;96802.33;;;-0.33;66.86
85016;BME280;75339;50.216;20.512;2024-01-15T04:38:58;96800.02;;;-0.30;67.41
85016;BME280;75339;50.216;20.512;2024-01-15T04:41:25;96796.77;;;-0.31;67.05
85016;BME280;75339;50.216;20.512;2024-01-15T04:43:51;96793.48;;;-0.32;66.98
85016;BME280;75339;50.216;20.512;2024-01-15T04:46:18;96789.99;;;-0.30;67.21
85016;BME280;75339;50.216;20.512;2024-01-15T04:48:46;96781.91;;;-0.32;66.64
85016;BME280;75339;50.216;20.512;2024-01-15T04:51:13;96707.93;;;-0.76;66.87
85016;BME280;75339;50.216;20.512;2024-01-15T04:53:40;96788.07;;;-0.29;67.02
85016;BME280;75339;50.216;20.512;2024-01-15T04:56:06;96786.09;;;-0.35;67.03
85016;BME280;75339;50.216;20.512;2024-01-15T04:58:33;96786.70;;;-0.40;67.35
85016;BME280;75339;50.216;20.512;2024-01-15T05:01:00;96788.36;;;-0.45;67.45
85016;BME280;75339;50.216;20.512;2024-01-15T05:03:26;96793.43;;;-0.48;67.12
85016;BME280;75339;50.216;20.512;2024-01-15T05:05:53;96792.77;;;-0.50;67.25
85016;BME280;75339;50.216;20.512;2024-01-15T05:08:20;96792.25;;;-0.50;67.61
85016;BME280;75339;50.216;20.512;2024-01-15T05:10:47;96788.27;;;-0.49;67.35
85016;BME280;75339;50.216;20.512;2024-01-15T05:13:14;96785.04;;;-0.43;67.59
85016;BME280;75339;50.216;20.512;2024-01-15T05:15:40;96779.33;;;-0.33;67.30
85016;BME280;75339;50.216;20.512;2024-01-15T05:18:07;96784.63;;;-0.22;66.52
85016;BME280;75339;50.216;20.512;2024-01-15T05:20:34;96777.34;;;-0.12;66.52
85016;BME280;75339;50.216;20.512;2024-01-15T05:23:00;96777.96;;;-0.09;66.16
85016;BME280;75339;50.216;20.512;2024-01-15T05:25:29;96776.54;;;-0.07;66.16
85016;BME280;75339;50.216;20.512;2024-01-15T05:27:55;96774.81;;;-0.07;66.70
85016;BME280;75339;50.216;20.512;2024-01-15T05:30:22;96770.90;;;-0.10;66.67
85016;BME280;75339;50.216;20.512;2024-01-15T05:32:49;96770.23;;;-0.12;66.18
85016;BME280;75339;50.216;20.512;2024-01-15T05:35:15;96769.23;;;-0.14;67.10
85016;BME280;75339;50.216;20.512;2024-01-15T05:37:44;96761.66;;;-0.15;66.82
85016;BME280;75339;50.216;20.512;2024-01-15T05:40:14;96760.58;;;-0.13;66.69
85016;BME280;75339;50.216;20.512;2024-01-15T05:42:41;96763.92;;;-0.16;66.83
85016;BME280;75339;50.216;20.512;2024-01-15T05:45:08;96758.77;;;-0.26;67.45
85016;BME280;75339;50.216;20.512;2024-01-15T05:47:35;96754.45;;;-0.35;67.46
85016;BME280;75339;50.216;20.512;2024-01-15T05:50:01;96755.80;;;-0.43;67.23
85016;BME280;75339;50.216;20.512;2024-01-15T05:52:28;96748.92;;;-0.44;67.38
85016;BME280;75339;50.216;20.512;2024-01-15T05:54:55;96746.38;;;-0.47;67.24
85016;BME280;75339;50.216;20.512;2024-01-15T05:57:22;96747.17;;;-0.53;67.91
85016;BME280;75339;50.216;20.512;2024-01-15T05:59:52;96742.63;;;-0.57;67.88
85016;BME280;75339;50.216;20.512;2024-01-15T06:02:19;96733.31;;;-0.59;67.48
85016;BME280;75339;50.216;20.512;2024-01-15T06:04:45;96732.98;;;-0.52;67.54
85016;BME280;75339;50.216;20.512;2024-01-15T06:07:12;96730.46;;;-0.47;67.14
85016;BME280;75339;50.216;20.512;2024-01-15T06:09:39;96727.98;;;-0.44;67.17
85016;BME280;75339;50.216;20.512;2024-01-15T06:12:07;96727.13;;;-0.36;66.41
85016;BME280;75339;50.216;20.512;2024-01-15T06:14:34;96724.64;;;-0.24;66.69
85016;BME280;75339;50.216;20.512;2024-01-15T06:17:01;96711.26;;;-0.21;66.80
85016;BME280;75339;50.216;20.512;2024-01-15T06:19:28;96719.96;;;-0.24;67.30
85016;BME280;75339;50.216;20.512;2024-01-15T06:21:54;96718.37;;;-0.22;67.09
85016;BME280;75339;50.216;20.512;2024-01-15T06:24:21;96722.75;;;-0.17;66.55
85016;BME280;75339;50.216;20.512;2024-01-15T06:26:48;96721.66;;;-0.15;66.68
85016;BME280;75339;50.216;20.512;2024-01-15T06:29:14;96717.86;;;-0.14;66.79
85016;BME280;75339;50.216;20.512;2024-01-15T06:31:41;96729.86;;;-0.17;66.91
85016;BME280;75339;50.216;20.512;2024-01-15T06:34:08;96727.95;;;-0.17;67.03
85016;BME280;75339;50.216;20.512;2024-01-15T06:36:34;96720.32;;;-0.16;66.86
85016;BME280;75339;50.216;20.512;2024-01-15T06:39:01;96719.73;;;-0.12;66.46
85016;BME280;75339;50.216;20.512;2024-01-15T06:41:28;96720.68;;;-0.08;66.66
85016;BME280;75339;50.216;20.512;2024-01-15T06:43:54;96721.42;;;-0.11;66.50
85016;BME280;75339;50.216;20.512;2024-01-15T06:46:23;96726.63;;;-0.11;65.84
85016;BME280;75339;50.216;20.512;2024-01-15T06:48:49;96726.39;;;-0.08;65.99
85016;BME280;75339;50.216;20.512;2024-01-15T06:51:16;96733.16;;;-0.09;66.72
85016;BME280;75339;50.216;20.512;2024-01-15T06:53:43;96729.88;;;-0.10;66.40
85016;BME280;75339;50.216;20.512;2024-01-15T06:56:09;96739.91;;;-0.10;66.85
85016;BME280;75339;50.216;20.512;2024-01-15T06:58:36;96737.83;;;-0.09;66.47
85016;BME280;75339;50.216;20.512;2024-01-15T07:01:03;96729.58;;;-0.04;65.98
85016;BME280;75339;50.216;20.512;2024-01-15T07:03:31;96737.45;;;0.00;66.81
85016;BME280;75339;50.216;20.512;2024-01-15T07:05:57;96733.05;;;-0.04;66.27
85016;BME280;75339;50.216;20.512;2024-01-15T07:08:24;96731.52;;;-0.05;67.03
85016;BME280;75339;50.216;20.512;2024-01-15T07:10:51;96740.87;;;-0.05;67.03
85016;BME280;75339;50.216;20.512;2024-01-15T07:13:18;96736.70;;;-0.05;67.32
85016;BME280;75339;50.216;20.512;2024-01-15T07:15:44;96737.72;;;-0.04;67.11
85016;BME280;75339;50.216;20.512;2024-01-15T07:18:11;96744.88;;;-0.07;67.61
85016;BME280;75339;50.216;20.512;2024-01-15T07:20:37;96739.52;;;-0.08;67.95
85016;BME280;75339;50.216;20.512;2024-01-15T07:23:04;96736.58;;;-0.07;68.32
85016;BME280;75339;50.216;20.512;2024-01-15T07:25:31;96753.34;;;-0.07;68.04
85016;BME280;75339;50.216;20.512;2024-01-15T07:27:57;96729.63;;;-0.06;67.73
85016;BME280;75339;50.216;20.512;2024-01-15T07:30:49;96699.16;;;-0.21;68.02
85016;BME280;75339;50.216;20.512;2024-01-15T07:33:16;96750.27;;;-0.01;67.82
85016;BME280;75339;50.216;20.512;2024-01-15T07:35:42;96747.41;;;-0.05;67.92
85016;BME280;75339;50.216;20.512;2024-01-15T07:38:09;96753.66;;;-0.05;68.24
85016;BME280;75339;50.216;20.512;2024-01-15T07:40:38;96756.31;;;0.01;67.97
85016;BME280;75339;50.216;20.512;2024-01-15T07:43:04;96756.92;;;0.03;67.50
85016;BME280;75339;50.216;20.512;2024-01-15T07:45:31;96763.84;;;0.04;67.96
85016;BME280;75339;50.216;20.512;2024-01-15T07:47:58;96761.59;;;0.04;68.26
85016;BME280;75339;50.216;20.512;2024-01-15T07:50:24;96751.32;;;0.07;67.91
85016;BME280;75339;50.216;20.512;2024-01-15T07:52:51;96759.05;;;0.09;68.09
85016;BME280;75339;50.216;20.512;2024-01-15T07:55:19;96758.52;;;0.10;68.03
85016;BME280;75339;50.216;20.512;2024-01-15T07:57:46;96756.27;;;0.10;68.03
85016;BME280;75339;50.216;20.512;2024-01-15T08:00:13;96759.99;;;0.14;67.35
85016;BME280;75339;50.216;20.512;2024-01-15T08:02:39;96757.85;;;0.18;67.24
85016;BME280;75339;50.216;20.512;2024-01-15T08:05:07;96764.93;;;0.18;67.23
85016;BME280;75339;50.216;20.512;2024-01-15T08:07:33;96760.63;;;0.16;67.73
85016;BME280;75339;50.216;20.512;2024-01-15T08:10:00;96761.42;;;0.20;66.96
85016;BME280;75339;50.216;20.512;2024-01-15T08:12:27;96764.89;;;0.20;67.40
85016;BME280;75339;50.216;20.512;2024-01-15T08:14:53;96754.34;;;0.20;66.74
85016;BME280;75339;50.216;20.512;2024-01-15T08:17:20;96759.80;;;0.23;66.66
85016;BME280;75339;50.216;20.512;2024-01-15T08:19:47;96759.63;;;0.23;66.80
85016;BME280;75339;50.216;20.512;2024-01-15T08:22:14;96759.55;;;0.19;66.48
85016;BME280;75339;50.216;20.512;2024-01-15T08:24:40;96760.88;;;0.13;66.46
85016;BME280;75339;50.216;20.512;2024-01-15T08:27:07;96752.75;;;0.13;66.30
85016;BME280;75339;50.216;20.512;2024-01-15T08:29:34;96745.09;;;0.15;66.16
85016;BME280;75339;50.216;20.512;2024-01-15T08:32:01;96734.84;;;0.17;65.92
85016;BME280;75339;50.216;20.512;2024-01-15T08:34:28;96744.48;;;0.18;65.88
85016;BME280;75339;50.216;20.512;2024-01-15T08:36:54;96743.13;;;0.09;66.09
85016;BME280;75339;50.216;20.512;2024-01-15T08:39:21;96739.73;;;0.21;66.25
85016;BME280;75339;50.216;20.512;2024-01-15T08:41:47;96730.77;;;0.43;66.16
85016;BME280;75339;50.216;20.512;2024-01-15T08:44:14;96731.71;;;0.54;66.42
85016;BME280;75339;50.216;20.512;2024-01-15T08:46:41;96737.16;;;0.73;65.80
85016;BME280;75339;50.216;20.512;2024-01-15T08:49:07;96731.96;;;0.86;65.65
85016;BME280;75339;50.216;20.512;2024-01-15T08:51:34;96718.20;;;0.82;65.99
85016;BME280;75339;50.216;20.512;2024-01-15T08:54:01;96735.46;;;0.64;66.23
85016;BME280;75339;50.216;20.512;2024-01-15T08:56:30;96741.02;;;0.56;66.47
85016;BME280;75339;50.216;20.512;2024-01-15T08:58:57;96740.85;;;0.55;66.16
85016;BME280;75339;50.216;20.512;2024-01-15T09:01:23;96745.05;;;0.55;66.26
85016;BME280;75339;50.216;20.512;2024-01-15T09:03:50;96746.20;;;0.50;66.32
85016;BME280;75339;50.216;20.512;2024-01-15T09:06:17;96742.13;;;0.46;66.48
85016;BME280;75339;50.216;20.512;2024-01-15T09:08:44;96741.52;;;0.43;66.43
85016;BME280;75339;50.216;20.512;2024-01-15T09:11:11;96746.02;;;0.35;66.96
85016;BME280;75339;50.216;20.512;2024-01-15T09:13:38;96742.85;;;0.45;67.01
85016;BME280;75339;50.216;20.512;2024-01-15T09:16:05;96742.32;;;0.60;66.87
85016;BME280;75339;50.216;20.512;2024-01-15T09:18:32;96764.99;;;0.38;67.12
85016;BME280;75339;50.216;20.512;2024-01-15T09:20:59;96761.82;;;0.63;66.70
85016;BME280;75339;50.216;20.512;2024-01-15T09:23:25;96763.56;;;0.98;65.17
85016;BME280;75339;50.216;20.512;2024-01-15T09:25:52;96757.90;;;1.36;63.70
85016;BME280;75339;50.216;20.512;2024-01-15T09:28:19;96768.92;;;1.71;62.34
85016;BME280;75339;50.216;20.512;2024-01-15T09:30:45;96759.71;;;2.07;61.15
85016;BME280;75339;50.216;20.512;2024-01-15T09:33:13;96754.94;;;2.33;60.02
85016;BME280;75339;50.216;20.512;2024-01-15T09:35:40;96755.80;;;2.28;60.29
85016;BME280;75339;50.216;20.512;2024-01-15T09:38:07;96756.91;;;2.25;60.40
85016;BME280;75339;50.216;20.512;2024-01-15T09:40:38;96755.08;;;2.28;59.76
85016;BME280;75339;50.216;20.512;2024-01-15T09:43:05;96760.19;;;2.09;60.31
85016;BME280;75339;50.216;20.512;2024-01-15T09:45:31;96758.71;;;2.12;60.18
85016;BME280;75339;50.216;20.512;2024-01-15T09:47:58;96767.04;;;2.06;59.93
85016;BME280;75339;50.216;20.512;2024-01-15T09:50:27;96765.98;;;1.89;60.84
85016;BME280;75339;50.216;20.512;2024-01-15T09:52:54;96763.09;;;1.81;60.31
85016;BME280;75339;50.216;20.512;2024-01-15T09:55:26;96762.74;;;1.62;61.06
85016;BME280;75339;50.216;20.512;2024-01-15T09:57:55;96757.95;;;1.79;60.96
85016;BME280;75339;50.216;20.512;2024-01-15T10:00:23;96751.89;;;1.34;61.78
85016;BME280;75339;50.216;20.512;2024-01-15T10:02:50;96757.77;;;1.14;62.50
85016;BME280;75339;50.216;20.512;2024-01-15T10:05:17;96752.58;;;1.59;61.77
85016;BME280;75339;50.216;20.512;2024-01-15T10:07:45;96751.27;;;1.69;61.65
85016;BME280;75339;50.216;20.512;2024-01-15T10:10:14;96753.69;;;1.44;62.67
85016;BME280;75339;50.216;20.512;2024-01-15T10:12:41;96758.72;;;0.98;63.66
85016;BME280;75339;50.216;20.512;2024-01-15T10:15:12;96762.39;;;0.61;65.36
85016;BME280;75339;50.216;20.512;2024-01-15T10:17:39;96750.31;;;0.45;65.96
85016;BME280;75339;50.216;20.512;2024-01-15T10:20:10;96745.17;;;0.33;65.96
85016;BME280;75339;50.216;20.512;2024-01-15T10:22:41;96758.71;;;0.17;66.57
85016;BME280;75339;50.216;20.512;2024-01-15T10:25:15;96755.23;;;0.18;66.85
85016;BME280;75339;50.216;20.512;2024-01-15T10:27:43;96758.54;;;0.25;66.94
85016;BME280;75339;50.216;20.512;2024-01-15T10:30:11;96753.43;;;0.44;67.15
85016;BME280;75339;50.216;20.512;2024-01-15T10:32:38;96774.19;;;0.45;67.92
85016;BME280;75339;50.216;20.512;2024-01-15T10:35:07;96765.06;;;0.35;67.58
85016;BME280;75339;50.216;20.512;2024-01-15T10:37:34;96775.02;;;0.08;68.03
85016;BME280;75339;50.216;20.512;2024-01-15T10:40:03;96767.20;;;-0.15;68.76
85016;BME280;75339;50.216;20.512;2024-01-15T10:42:33;96764.31;;;-0.18;69.24
85016;BME280;75339;50.216;20.512;2024-01-15T10:45:00;96775.12;;;-0.22;69.43
85016;BME280;75339;50.216;20.512;2024-01-15T10:47:26;96776.41;;;-0.26;69.53
85016;BME280;75339;50.216;20.512;2024-01-15T10:49:55;96775.28;;;-0.30;69.11
85016;BME280;75339;50.216;20.512;2024-01-15T10:52:22;96788.16;;;-0.33;68.78
85016;BME280;75339;50.216;20.512;2024-01-15T10:54:50;96790.30;;;-0.11;69.15
85016;BME280;75339;50.216;20.512;2024-01-15T10:57:17;96782.48;;;0.89;66.20
85016;BME280;75339;50.216;20.512;2024-01-15T10:59:45;96772.77;;;1.76;63.07
85016;BME280;75339;50.216;20.512;2024-01-15T11:02:13;96780.08;;;2.06;61.74
85016;BME280;75339;50.216;20.512;2024-01-15T11:04:40;96764.87;;;2.21;61.01
85016;BME280;75339;50.216;20.512;2024-01-15T11:07:07;96768.92;;;2.37;60.44
85016;BME280;75339;50.216;20.512;2024-01-15T11:09:34;96763.27;;;2.40;59.80
85016;BME280;75339;50.216;20.512;2024-01-15T11:12:10;96770.04;;;1.67;61.26
85016;BME280;75339;50.216;20.512;2024-01-15T11:14:47;96772.73;;;1.12;63.50
85016;BME280;75339;50.216;20.512;2024-01-15T11:17:17;96674.67;;;1.25;62.01
85016;BME280;75339;50.216;20.512;2024-01-15T11:19:45;96755.64;;;2.16;60.40
85016;BME280;75339;50.216;20.512;2024-01-15T11:25:12;96782.45;;;1.18;61.95
85016;BME280;75339;50.216;20.512;2024-01-15T11:27:41;96770.86;;;1.31;62.36
85016;BME280;75339;50.216;20.512;2024-01-15T11:30:14;96775.05;;;1.30;61.74
85016;BME280;75339;50.216;20.512;2024-01-15T11:32:40;96769.73;;;1.08;62.67
85016;BME280;75339;50.216;20.512;2024-01-15T11:35:12;96759.54;;;1.83;60.57
85016;BME280;75339;50.216;20.512;2024-01-15T11:43:06;96752.83;;;2.46;57.55
85016;BME280;75339;50.216;20.512;2024-01-15T11:45:36;96737.36;;;2.35;57.37
85016;BME280;75339;50.216;20.512;2024-01-15T11:50:33;96749.23;;;2.21;58.05
85016;BME280;75339;50.216;20.512;2024-01-15T11:53:02;96745.40;;;1.67;59.46
85016;BME280;75339;50.216;20.512;2024-01-15T11:55:34;96746.91;;;1.45;60.13
85016;BME280;75339;50.216;20.512;2024-01-15T11:58:02;96745.25;;;1.48;60.00
85016;BME280;75339;50.216;20.512;2024-01-15T12:00:34;96759.13;;;0.88;61.65
85016;BME280;75339;50.216;20.512;2024-01-15T12:03:01;96751.98;;;0.82;62.41
85016;BME280;75339;50.216;20.512;2024-01-15T12:05:28;96753.23;;;1.48;60.68
85016;BME280;75339;50.216;20.512;2024-01-15T12:07:55;96751.66;;;1.91;58.88
85016;BME280;75339;50.216;20.512;2024-01-15T12:10:22;96722.55;;;1.78;58.21
85016;BME280;75339;50.216;20.512;2024-01-15T12:13:04;96741.64;;;1.08;60.00
85016;BME280;75339;50.216;20.512;2024-01-15T12:15:32;96743.61;;;0.49;62.21
85016;BME280;75339;50.216;20.512;2024-01-15T12:18:00;96741.73;;;0.26;62.76
85016;BME280;75339;50.216;20.512;2024-01-15T12:20:32;96746.63;;;0.15;62.92
85016;BME280;75339;50.216;20.512;2024-01-15T12:22:59;96742.72;;;0.12;63.15
85016;BME280;75339;50.216;20.512;2024-01-15T12:25:26;96738.27;;;0.18;63.34
85016;BME280;75339;50.216;20.512;2024-01-15T12:27:56;96718.98;;;0.58;62.59
85016;BME280;75339;50.216;20.512;2024-01-15T12:30:23;96733.71;;;0.86;61.87
85016;BME280;75339;50.216;20.512;2024-01-15T12:32:51;96748.52;;;1.11;61.26
85016;BME280;75339;50.216;20.512;2024-01-15T12:35:17;96743.58;;;0.86;61.16
85016;BME280;75339;50.216;20.512;2024-01-15T12:37:44;96728.90;;;0.34;62.62
85016;BME280;75339;50.216;20.512;2024-01-15T12:40:18;96746.09;;;0.24;63.55
85016;BME280;75339;50.216;20.512;2024-01-15T12:42:46;96753.24;;;0.14;64.24
85016;BME280;75339;50.216;20.512;2024-01-15T12:45:13;96761.46;;;0.10;64.96
85016;BME280;75339;50.216;20.512;2024-01-15T12:47:40;96760.09;;;0.09;65.19
85016;BME280;75339;50.216;20.512;2024-01-15T12:50:09;96752.80;;;0.18;64.70
85016;BME280;75339;50.216;20.512;2024-01-15T12:52:36;96746.98;;;0.38;63.74
85016;BME280;75339;50.216;20.512;2024-01-15T12:55:05;96753.61;;;0.52;63.71
85016;BME280;75339;50.216;20.512;2024-01-15T12:57:33;96754.95;;;0.60;63.41
85016;BME280;75339;50.216;20.512;2024-01-15T13:00:03;96756.45;;;0.62;63.67
85016;BME280;75339;50.216;20.512;2024-01-15T13:02:40;96765.52;;;0.45;63.46
85016;BME280;75339;50.216;20.512;2024-01-15T13:05:08;96760.14;;;0.30;63.49
85016;BME280;75339;50.216;20.512;2024-01-15T13:07:35;96758.08;;;0.14;64.27